Time;durP1;ratioP1;P1;durP2;ratioP2;P2;SDS_P1;SDS_P2;PMS_P1;PMS_P2;Temp;Humidity;BMP_temperature;BMP_pressure;BME280_temperature;BME280_humidity;BME280_pressure;Samples;Min_cycle;Max_cycle;Signal;HPM_P1;HPM_P2
2023/09/08 00:01:06;;;;;;;;;;;19.70;99.90;;;;;;5115681;28;19920;-42
2023/09/08 00:03:31;;;;;;;;;;;19.70;99.90;;;;;;5115738;28;19939;-44
2023/09/08 00:05:57;;;;;;;;;;;19.60;99.90;;;;;;5115667;28;19908;-42
2023/09/08 00:08:23;;;;;;;;;;;19.60;99.90;;;;;;5115681;28;19953;-42
2023/09/08 00:10:49;;;;;;;;;;;19.60;99.90;;;;;;5115597;28;19972;-46
2023/09/08 00:13:14;;;;;;;;;;;19.60;99.90;;;;;;5115439;28;20338;-42
2023/09/08 00:15:40;;;;;;;;;;;19.60;99.90;;;;;;5115574;28;19907;-41
2023/09/08 00:18:05;;;;;;;;;;;19.50;99.90;;;;;;5115423;28;19908;-42
2023/09/08 00:20:31;;;;;;;;;;;19.50;99.90;;;;;;5115384;28;19953;-43
2023/09/08 00:22:56;;;;;;;;;;;19.40;99.90;;;;;;5115239;28;19916;-42
2023/09/08 00:25:22;;;;;;;;;;;19.50;99.90;;;;;;5115334;28;19954;-42
2023/09/08 00:27:47;;;;;;;;;;;19.40;99.90;;;;;;5115109;28;20002;-44
2023/09/08 00:30:13;;;;;;;;;;;19.40;99.90;;;;;;5115171;28;19911;-41
2023/09/08 00:32:38;;;;;;;;;;;19.30;99.90;;;;;;5114948;28;20019;-43
2023/09/08 00:35:08;;;;;;;;;;;19.30;99.90;;;;;;5115089;28;19907;-40
2023/09/08 00:37:33;;;;;;;;;;;19.30;99.90;;;;;;5115017;28;19953;-41
2023/09/08 00:39:59;;;;;;;;;;;19.30;99.90;;;;;;5114990;28;19916;-41
2023/09/08 00:42:24;;;;;;;;;;;19.30;99.90;;;;;;5114859;28;19969;-41
2023/09/08 00:44:50;;;;;;;;;;;19.30;99.90;;;;;;5114911;28;20389;-42
2023/09/08 00:47:15;;;;;;;;;;;19.30;99.90;;;;;;5114869;28;19958;-41
2023/09/08 00:49:41;;;;;;;;;;;19.20;99.90;;;;;;5114868;28;19976;-42
2023/09/08 00:52:06;;;;;;;;;;;19.20;99.90;;;;;;5114838;28;19912;-42
2023/09/08 00:54:32;;;;;;;;;;;19.10;99.90;;;;;;5114778;28;19915;-41
2023/09/08 00:56:57;;;;;;;;;;;19.10;99.90;;;;;;5114607;28;19982;-41
2023/09/08 00:59:23;;;;;;;;;;;19.10;99.90;;;;;;5114741;28;19941;-42
2023/09/08 01:01:48;;;;;;;;;;;19.10;99.90;;;;;;5114490;28;19923;-42
2023/09/08 01:04:14;;;;;;;;;;;19.00;99.90;;;;;;5114509;27;20316;-42
2023/09/08 01:06:40;;;;;;;;;;;19.00;99.90;;;;;;5102669;28;20381;-43
2023/09/08 01:09:05;;;;;;;;;;;19.00;99.90;;;;;;5094095;28;19908;-40
2023/09/08 01:11:31;;;;;;;;;;;19.00;99.90;;;;;;5095009;28;19912;-42
2023/09/08 01:13:57;;;;;;;;;;;19.00;99.90;;;;;;5114288;28;19916;-43
2023/09/08 01:16:22;;;;;;;;;;;18.90;99.90;;;;;;5114304;28;19947;-42
2023/09/08 01:18:49;;;;;;;;;;;18.90;99.90;;;;;;5112642;28;20285;-45
2023/09/08 01:21:14;;;;;;;;;;;18.90;99.90;;;;;;5114134;28;20328;-41
2023/09/08 01:23:56;;;;;;;;;;;18.90;99.90;;;;;;5114619;28;19908;-42
2023/09/08 01:26:25;;;;;;;;;;;18.80;99.90;;;;;;5114411;28;19925;-41
2023/09/08 01:28:51;;;;;;;;;;;18.80;99.90;;;;;;5093763;28;19908;-42
2023/09/08 01:31:17;;;;;;;;;;;18.80;99.90;;;;;;5093438;28;20402;-41
2023/09/08 01:33:44;;;;;;;;;;;18.80;99.90;;;;;;5093670;28;19947;-43
2023/09/08 01:36:10;;;;;;;;;;;18.70;99.90;;;;;;5093492;28;19919;-41
2023/09/08 01:38:35;;;;;;;;;;;18.70;99.90;;;;;;5093567;28;19908;-43
2023/09/08 01:41:01;;;;;;;;;;;18.70;99.90;;;;;;5093362;28;19916;-40
2023/09/08 01:43:27;;;;;;;;;;;18.60;99.90;;;;;;5093570;28;19916;-41
2023/09/08 01:45:52;;;;;;;;;;;18.60;99.90;;;;;;5093407;28;19916;-41
2023/09/08 01:48:18;;;;;;;;;;;18.60;99.90;;;;;;5096601;28;19914;-41
2023/09/08 01:50:43;;;;;;;;;;;18.50;99.90;;;;;;5113606;28;19999;-41
2023/09/08 01:53:09;;;;;;;;;;;18.50;99.90;;;;;;5113297;28;19911;-41
2023/09/08 01:55:34;;;;;;;;;;;18.50;99.90;;;;;;5113673;28;20369;-42
2023/09/08 01:58:00;;;;;;;;;;;18.40;99.90;;;;;;5113584;28;19914;-41
2023/09/08 02:00:26;;;;;;;;;;;18.40;99.90;;;;;;5113787;28;19914;-41
2023/09/08 02:02:51;;;;;;;;;;;18.40;99.90;;;;;;5113478;27;19915;-41
2023/09/08 02:05:17;;;;;;;;;;;18.30;99.90;;;;;;5113607;28;19961;-42
2023/09/08 02:07:42;;;;;;;;;;;18.30;99.90;;;;;;5113474;28;19951;-42
2023/09/08 02:10:09;;;;;;;;;;;18.20;99.90;;;;;;5113318;28;20373;-42
2023/09/08 02:12:34;;;;;;;;;;;18.20;99.90;;;;;;5113555;28;19908;-41
2023/09/08 02:15:00;;;;;;;;;;;18.20;99.90;;;;;;5110523;28;19919;-42
2023/09/08 02:17:25;;;;;;;;;;;18.20;99.90;;;;;;5111504;28;19912;-41
2023/09/08 02:19:51;;;;;;;;;;;18.20;99.90;;;;;;5113073;28;20285;-42
2023/09/08 02:22:16;;;;;;;;;;;18.20;99.90;;;;;;5113128;28;19920;-42
2023/09/08 02:24:41;;;;;;;;;;;18.10;99.90;;;;;;5112330;28;19965;-43
2023/09/08 02:27:07;;;;;;;;;;;18.10;99.90;;;;;;5113232;28;19907;-40
2023/09/08 02:29:32;;;;;;;;;;;18.10;99.90;;;;;;5113260;28;19908;-42
2023/09/08 02:31:58;;;;;;;;;;;18.10;99.90;;;;;;5100687;28;19920;-42
2023/09/08 02:34:23;;;;;;;;;;;18.10;99.90;;;;;;5092857;28;19908;-42
2023/09/08 02:36:50;;;;;;;;;;;18.10;99.90;;;;;;5077226;28;19918;-42
2023/09/08 02:39:16;;;;;;;;;;;18.00;99.90;;;;;;5072552;28;20363;-40
2023/09/08 02:41:41;;;;;;;;;;;18.00;99.90;;;;;;5072448;28;19917;-40
2023/09/08 02:44:07;;;;;;;;;;;18.00;99.90;;;;;;5072470;28;19948;-40
2023/09/08 02:46:32;;;;;;;;;;;18.00;99.90;;;;;;5072463;28;19952;-41
2023/09/08 02:48:58;;;;;;;;;;;18.00;99.90;;;;;;5072401;28;19963;-41
2023/09/08 02:51:23;;;;;;;;;;;18.00;99.90;;;;;;5072416;28;19908;-41
2023/09/08 02:53:49;;;;;;;;;;;17.90;99.90;;;;;;5072326;28;20390;-42
2023/09/08 02:56:14;;;;;;;;;;;17.90;99.90;;;;;;5072447;28;19908;-42
2023/09/08 02:58:40;;;;;;;;;;;17.90;99.90;;;;;;5072384;28;19909;-42
2023/09/08 03:01:13;;;;;;;;;;;17.80;99.90;;;;;;5072216;28;19967;-41
2023/09/08 03:03:38;;;;;;;;;;;17.80;99.90;;;;;;5073352;28;19912;-40
2023/09/08 03:06:04;;;;;;;;;;;17.80;99.90;;;;;;5080219;28;19908;-42
2023/09/08 03:08:30;;;;;;;;;;;17.80;99.90;;;;;;5096568;28;20006;-41
2023/09/08 03:10:57;;;;;;;;;;;17.70;99.90;;;;;;5096248;28;19991;-42
2023/09/08 03:13:22;;;;;;;;;;;17.70;99.90;;;;;;5096384;28;19916;-42
2023/09/08 03:15:48;;;;;;;;;;;17.70;99.90;;;;;;5096355;28;19908;-42
2023/09/08 03:18:13;;;;;;;;;;;17.70;99.90;;;;;;5096246;28;20046;-45
2023/09/08 03:20:40;;;;;;;;;;;17.60;99.90;;;;;;5096088;28;20277;-41
2023/09/08 03:23:05;;;;;;;;;;;17.60;99.90;;;;;;5096040;28;19994;-45
2023/09/08 03:25:31;;;;;;;;;;;17.60;99.90;;;;;;5096120;28;20391;-42
2023/09/08 03:27:56;;;;;;;;;;;17.60;99.90;;;;;;5096048;28;19918;-42
2023/09/08 03:30:22;;;;;;;;;;;17.50;99.90;;;;;;5095947;28;20324;-40
2023/09/08 03:32:47;;;;;;;;;;;17.40;99.90;;;;;;5114837;28;20018;-43
2023/09/08 03:35:13;;;;;;;;;;;17.30;99.90;;;;;;5116119;28;19907;-42
2023/09/08 03:37:38;;;;;;;;;;;17.30;99.90;;;;;;5116238;28;19912;-42
2023/09/08 03:40:07;;;;;;;;;;;17.20;99.90;;;;;;5116150;28;20003;-42
2023/09/08 03:42:32;;;;;;;;;;;17.20;99.90;;;;;;5116251;28;19916;-42
2023/09/08 03:44:58;;;;;;;;;;;17.20;99.90;;;;;;5116081;28;20277;-43
2023/09/08 03:47:23;;;;;;;;;;;17.20;99.90;;;;;;5116105;28;20354;-43
2023/09/08 03:49:49;;;;;;;;;;;17.20;99.90;;;;;;5115933;28;19912;-40
2023/09/08 03:52:15;;;;;;;;;;;17.20;99.90;;;;;;5116108;28;20370;-41
2023/09/08 03:54:40;;;;;;;;;;;17.20;99.90;;;;;;5116221;28;19912;-41
2023/09/08 03:57:06;;;;;;;;;;;17.20;99.90;;;;;;5115795;28;19912;-41
2023/09/08 03:59:31;;;;;;;;;;;17.10;99.90;;;;;;5115956;28;19912;-45
2023/09/08 04:01:57;;;;;;;;;;;17.20;99.90;;;;;;5115704;28;20270;-42
2023/09/08 04:04:22;;;;;;;;;;;17.20;99.90;;;;;;5115933;28;20053;-43
2023/09/08 04:06:48;;;;;;;;;;;17.20;99.90;;;;;;5101013;28;19908;-43
2023/09/08 04:09:14;;;;;;;;;;;17.20;99.90;;;;;;5095275;28;19908;-42
2023/09/08 04:11:39;;;;;;;;;;;17.20;99.90;;;;;;5095198;28;19912;-41
2023/09/08 04:14:05;;;;;;;;;;;17.20;99.90;;;;;;5094736;28;20316;-40
2023/09/08 04:16:30;;;;;;;;;;;17.20;99.90;;;;;;5095421;28;19914;-42
2023/09/08 04:18:56;;;;;;;;;;;17.20;99.90;;;;;;5103691;28;19938;-41
2023/09/08 04:21:21;;;;;;;;;;;17.20;99.90;;;;;;5094999;28;19967;-44
2023/09/08 04:23:47;;;;;;;;;;;17.20;99.90;;;;;;5094940;28;19915;-41
2023/09/08 04:26:13;;;;;;;;;;;17.20;99.90;;;;;;5095114;28;19912;-42
2023/09/08 04:28:38;;;;;;;;;;;17.20;99.90;;;;;;5094919;28;19908;-41
2023/09/08 04:31:04;;;;;;;;;;;17.20;99.90;;;;;;5099919;28;19926;-41
2023/09/08 04:33:30;;;;;;;;;;;17.20;99.90;;;;;;5115232;28;19919;-43
2023/09/08 04:35:55;;;;;;;;;;;17.20;99.90;;;;;;5115080;28;19911;-43
2023/09/08 04:38:21;;;;;;;;;;;17.20;99.90;;;;;;5104064;28;19912;-41
2023/09/08 04:40:46;;;;;;;;;;;17.30;99.90;;;;;;5094764;28;19916;-41
2023/09/08 04:43:12;;;;;;;;;;;17.30;99.90;;;;;;5112969;28;19916;-40
2023/09/08 04:45:37;;;;;;;;;;;17.30;99.90;;;;;;5114989;28;20354;-41
2023/09/08 04:48:04;;;;;;;;;;;17.30;99.90;;;;;;5114323;28;19912;-42
2023/09/08 04:50:29;;;;;;;;;;;17.20;99.90;;;;;;5116284;27;19908;-44
2023/09/08 04:52:55;;;;;;;;;;;17.20;99.90;;;;;;5114690;28;19938;-41
2023/09/08 04:55:20;;;;;;;;;;;17.20;99.90;;;;;;5114794;28;19908;-41
2023/09/08 04:57:46;;;;;;;;;;;17.20;99.90;;;;;;5114695;28;19911;-42
2023/09/08 05:00:11;;;;;;;;;;;17.20;99.90;;;;;;5114615;28;19908;-41
2023/09/08 05:02:37;;;;;;;;;;;17.20;99.90;;;;;;5114430;28;19916;-43
2023/09/08 05:05:03;;;;;;;;;;;17.20;99.90;;;;;;5114429;28;19968;-42
2023/09/08 05:07:28;;;;;;;;;;;17.20;99.90;;;;;;5114464;28;19944;-41
2023/09/08 05:09:54;;;;;;;;;;;17.10;99.90;;;;;;5114390;28;19908;-42
2023/09/08 05:12:19;;;;;;;;;;;17.10;99.90;;;;;;5114420;28;19912;-41
2023/09/08 05:14:45;;;;;;;;;;;17.10;99.90;;;;;;5106909;28;19965;-40
2023/09/08 05:17:10;;;;;;;;;;;17.10;99.90;;;;;;5113873;28;19908;-41
2023/09/08 05:19:36;;;;;;;;;;;17.10;99.90;;;;;;5114204;28;19934;-42
2023/09/08 05:22:01;;;;;;;;;;;17.20;99.90;;;;;;5113926;28;20274;-43
2023/09/08 05:24:27;;;;;;;;;;;17.20;99.90;;;;;;5114184;28;19907;-42
2023/09/08 05:26:53;;;;;;;;;;;17.20;99.90;;;;;;5113389;28;19908;-43
2023/09/08 05:29:18;;;;;;;;;;;17.20;99.90;;;;;;5113965;28;19915;-42
2023/09/08 05:31:44;;;;;;;;;;;17.20;99.90;;;;;;5113843;28;19965;-42
2023/09/08 05:34:10;;;;;;;;;;;17.20;99.90;;;;;;5113930;28;19912;-42
2023/09/08 05:36:37;;;;;;;;;;;17.10;99.90;;;;;;5113884;28;19908;-42
2023/09/08 05:39:03;;;;;;;;;;;17.20;99.90;;;;;;5113654;28;19912;-40
2023/09/08 05:41:29;;;;;;;;;;;17.20;99.90;;;;;;5104695;28;20263;-42
2023/09/08 05:43:54;;;;;;;;;;;17.20;99.90;;;;;;5108427;28;20427;-42
2023/09/08 05:46:20;;;;;;;;;;;17.20;99.90;;;;;;5105266;28;20029;-42
2023/09/08 05:48:47;;;;;;;;;;;17.30;99.90;;;;;;5113370;28;19911;-41
2023/09/08 05:51:13;;;;;;;;;;;17.30;99.90;;;;;;5113546;28;19908;-42
2023/09/08 05:53:39;;;;;;;;;;;17.30;99.90;;;;;;5114007;27;19911;-42
2023/09/08 05:56:05;;;;;;;;;;;17.30;99.90;;;;;;5125729;27;20126;-42
2023/09/08 05:58:31;;;;;;;;;;;17.30;99.90;;;;;;5106193;28;20517;-40
2023/09/08 06:00:56;;;;;;;;;;;17.30;99.90;;;;;;5111117;28;19908;-41
2023/09/08 06:03:22;;;;;;;;;;;17.40;99.90;;;;;;5108200;27;20006;-41
2023/09/08 06:05:47;;;;;;;;;;;17.40;99.90;;;;;;5111318;28;19907;-41
2023/09/08 06:08:13;;;;;;;;;;;17.40;99.90;;;;;;5096127;28;20002;-42
2023/09/08 06:10:38;;;;;;;;;;;17.50;99.90;;;;;;5093159;28;19915;-42
2023/09/08 06:13:04;;;;;;;;;;;17.50;99.90;;;;;;5108365;28;20373;-42
2023/09/08 06:15:29;;;;;;;;;;;17.50;99.90;;;;;;5112860;28;20308;-45
2023/09/08 06:17:55;;;;;;;;;;;17.60;99.90;;;;;;5111894;27;20025;-41
2023/09/08 06:20:21;;;;;;;;;;;17.60;99.90;;;;;;5113377;28;19914;-42
2023/09/08 06:22:46;;;;;;;;;;;17.60;99.90;;;;;;5113197;28;19915;-41
2023/09/08 06:25:12;;;;;;;;;;;17.70;99.90;;;;;;5113215;28;20002;-40
2023/09/08 06:27:38;;;;;;;;;;;17.80;99.90;;;;;;5113328;28;19915;-44
2023/09/08 06:30:04;;;;;;;;;;;17.80;99.90;;;;;;5113013;28;20304;-41
2023/09/08 06:32:29;;;;;;;;;;;17.90;99.90;;;;;;5113682;28;19945;-42
2023/09/08 06:34:54;;;;;;;;;;;17.90;99.90;;;;;;5101266;28;19970;-40
2023/09/08 06:37:20;;;;;;;;;;;18.00;99.90;;;;;;5101993;28;19908;-42
2023/09/08 06:39:45;;;;;;;;;;;18.00;99.90;;;;;;5102537;27;19956;-45
2023/09/08 06:42:11;;;;;;;;;;;18.10;99.90;;;;;;5110532;27;19919;-42
2023/09/08 06:44:36;;;;;;;;;;;18.10;99.90;;;;;;5112009;28;19919;-43
2023/09/08 06:47:03;;;;;;;;;;;18.20;99.90;;;;;;5133542;27;19998;-42
2023/09/08 06:49:28;;;;;;;;;;;18.30;99.90;;;;;;5137319;27;19957;-42
2023/09/08 06:51:54;;;;;;;;;;;18.30;99.90;;;;;;5116859;27;19978;-41
2023/09/08 06:54:19;;;;;;;;;;;18.40;99.90;;;;;;5129498;27;19916;-41
2023/09/08 06:56:45;;;;;;;;;;;18.50;99.90;;;;;;5121597;27;19907;-42
2023/09/08 06:59:10;;;;;;;;;;;18.60;99.90;;;;;;5131856;27;20657;-42
2023/09/08 07:01:36;;;;;;;;;;;18.70;99.90;;;;;;5116744;28;19916;-42
2023/09/08 07:04:02;;;;;;;;;;;18.80;99.90;;;;;;5121187;27;19915;-40
2023/09/08 07:06:27;;;;;;;;;;;18.90;99.90;;;;;;5120380;27;19912;-45
2023/09/08 07:08:53;;;;;;;;;;;19.00;99.90;;;;;;5119591;27;19911;-42
2023/09/08 07:11:19;;;;;;;;;;;19.10;99.90;;;;;;5130280;27;20361;-42
2023/09/08 07:13:44;;;;;;;;;;;19.20;99.90;;;;;;5121332;27;20002;-42
2023/09/08 07:16:10;;;;;;;;;;;19.30;99.90;;;;;;5125864;27;19912;-40
2023/09/08 07:18:35;;;;;;;;;;;19.40;99.90;;;;;;5123499;27;19908;-42
2023/09/08 07:21:01;;;;;;;;;;;19.50;99.90;;;;;;5116308;28;19941;-42
2023/09/08 07:23:27;;;;;;;;;;;19.60;99.90;;;;;;5116552;28;19908;-42
2023/09/08 07:25:52;;;;;;;;;;;19.80;99.90;;;;;;5116260;28;20330;-42
2023/09/08 07:28:18;;;;;;;;;;;19.80;99.90;;;;;;5122506;27;19912;-40
2023/09/08 07:30:43;;;;;;;;;;;20.00;99.90;;;;;;5125339;27;19907;-45
2023/09/08 07:33:09;;;;;;;;;;;20.10;99.90;;;;;;5127276;27;20006;-42
2023/09/08 07:35:38;;;;;;;;;;;20.20;99.90;;;;;;5129484;27;19912;-43
2023/09/08 07:38:03;;;;;;;;;;;20.30;99.90;;;;;;5116302;27;19951;-44
2023/09/08 07:40:29;;;;;;;;;;;20.40;99.90;;;;;;5112938;27;19958;-41
2023/09/08 07:42:54;;;;;;;;;;;20.50;99.90;;;;;;5124813;27;19920;-42
2023/09/08 07:45:20;;;;;;;;;;;20.60;99.90;;;;;;5115954;28;19912;-43
2023/09/08 07:47:45;;;;;;;;;;;20.70;99.90;;;;;;5120808;27;19939;-44
2023/09/08 07:50:17;;;;;;;;;;;20.80;99.90;;;;;;5113149;27;19912;-41
2023/09/08 07:52:42;;;;;;;;;;;20.90;99.90;;;;;;5107240;28;19915;-40
2023/09/08 07:55:08;;;;;;;;;;;21.00;99.90;;;;;;5115962;28;19918;-41
2023/09/08 07:57:34;;;;;;;;;;;21.10;99.90;;;;;;5115948;28;19908;-44
2023/09/08 07:59:59;;;;;;;;;;;21.20;99.90;;;;;;5115692;28;19961;-40
2023/09/08 08:02:25;;;;;;;;;;;21.30;99.90;;;;;;5115871;28;20069;-42
2023/09/08 08:04:50;;;;;;;;;;;21.30;99.90;;;;;;5107297;28;19916;-42
2023/09/08 08:07:16;;;;;;;;;;;21.40;99.90;;;;;;5112708;28;20003;-40
2023/09/08 08:09:41;;;;;;;;;;;21.50;99.90;;;;;;5106309;27;20286;-42
2023/09/08 08:12:07;;;;;;;;;;;21.50;99.90;;;;;;5098204;27;19927;-42
2023/09/08 08:14:32;;;;;;;;;;;21.60;99.90;;;;;;5094903;28;20344;-41
2023/09/08 08:16:58;;;;;;;;;;;21.60;99.90;;;;;;5094918;28;19908;-42
2023/09/08 08:19:23;;;;;;;;;;;21.80;99.90;;;;;;5095093;28;20335;-41
2023/09/08 08:21:48;;;;;;;;;;;21.80;99.90;;;;;;5104604;28;19927;-42
2023/09/08 08:24:14;;;;;;;;;;;21.90;99.90;;;;;;5115200;28;20442;-42
2023/09/08 08:26:39;;;;;;;;;;;22.00;99.90;;;;;;5114497;28;19919;-41
2023/09/08 08:29:05;;;;;;;;;;;22.00;99.90;;;;;;5115813;27;19919;-43
2023/09/08 08:31:30;;;;;;;;;;;22.10;99.90;;;;;;5109214;28;19920;-42
2023/09/08 08:33:56;;;;;;;;;;;22.30;99.90;;;;;;5094937;28;19916;-41
2023/09/08 08:36:21;;;;;;;;;;;22.40;99.90;;;;;;5111789;28;19914;-42
2023/09/08 08:38:47;;;;;;;;;;;22.50;99.90;;;;;;5115333;28;19907;-42
2023/09/08 08:41:12;;;;;;;;;;;22.60;99.90;;;;;;5112603;28;19952;-43
2023/09/08 08:43:38;;;;;;;;;;;22.60;99.90;;;;;;5095224;28;19943;-46
2023/09/08 08:46:04;;;;;;;;;;;22.80;99.90;;;;;;5095198;28;19912;-42
2023/09/08 08:48:30;;;;;;;;;;;22.90;99.90;;;;;;5095185;28;19908;-43
2023/09/08 08:50:56;;;;;;;;;;;23.00;99.90;;;;;;5094680;28;19962;-42
2023/09/08 08:53:22;;;;;;;;;;;23.10;99.90;;;;;;5095216;28;19995;-43
2023/09/08 08:55:49;;;;;;;;;;;23.10;99.90;;;;;;5121612;27;19995;-45
2023/09/08 08:58:15;;;;;;;;;;;23.30;99.90;;;;;;5101243;28;19914;-42
2023/09/08 09:00:40;;;;;;;;;;;23.30;99.90;;;;;;5114012;28;19908;-41
2023/09/08 09:03:07;;;;;;;;;;;23.40;99.90;;;;;;5111162;28;19920;-41
2023/09/08 09:05:33;;;;;;;;;;;23.40;99.90;;;;;;5110210;27;20350;-43
2023/09/08 09:08:03;;;;;;;;;;;23.60;99.90;;;;;;5132976;27;20002;-42
2023/09/08 09:10:29;;;;;;;;;;;23.70;99.90;;;;;;5106359;28;19951;-47
2023/09/08 09:12:55;;;;;;;;;;;23.70;99.90;;;;;;5114243;28;20892;-41
2023/09/08 09:15:31;;;;;;;;;;;23.80;99.90;;;;;;5114863;28;19964;-43
2023/09/08 09:18:04;;;;;;;;;;;23.80;99.90;;;;;;5114310;28;20036;-43
2023/09/08 09:20:29;;;;;;;;;;;23.90;99.90;;;;;;5114921;28;19918;-42
2023/09/08 09:22:55;;;;;;;;;;;24.00;99.90;;;;;;5114083;28;19916;-42
2023/09/08 09:25:24;;;;;;;;;;;24.00;99.90;;;;;;5114622;28;19962;-41
2023/09/08 09:27:54;;;;;;;;;;;24.10;99.90;;;;;;5122856;27;20239;-42
2023/09/08 09:30:20;;;;;;;;;;;24.20;99.90;;;;;;5135276;27;19911;-47
2023/09/08 09:32:46;;;;;;;;;;;24.30;99.90;;;;;;5123979;27;19919;-41
2023/09/08 09:35:11;;;;;;;;;;;24.30;99.90;;;;;;5114157;28;19915;-43
2023/09/08 09:37:40;;;;;;;;;;;24.40;99.90;;;;;;5114243;28;19912;-42
2023/09/08 09:40:07;;;;;;;;;;;24.50;99.90;;;;;;5114244;28;19915;-43
2023/09/08 09:42:33;;;;;;;;;;;24.60;99.90;;;;;;5114463;28;19927;-42
2023/09/08 09:45:00;;;;;;;;;;;24.80;99.90;;;;;;5114319;28;19911;-44
2023/09/08 09:47:26;;;;;;;;;;;24.90;99.90;;;;;;5114059;28;19915;-42
2023/09/08 09:49:52;;;;;;;;;;;24.90;99.90;;;;;;5114840;27;19912;-42
2023/09/08 09:52:22;;;;;;;;;;;25.00;99.90;;;;;;5134083;27;20002;-41
2023/09/08 09:54:50;;;;;;;;;;;25.10;99.90;;;;;;5130392;27;19960;-42
2023/09/08 09:57:16;;;;;;;;;;;25.10;99.90;;;;;;5115727;27;19937;-41
2023/09/08 09:59:42;;;;;;;;;;;25.20;99.90;;;;;;5114125;28;20316;-45
2023/09/08 10:02:11;;;;;;;;;;;25.30;99.90;;;;;;5113309;28;20282;-44
2023/09/08 10:04:37;;;;;;;;;;;25.30;99.90;;;;;;5113689;28;20312;-41
2023/09/08 10:07:03;;;;;;;;;;;25.40;99.90;;;;;;5113316;28;19987;-43
2023/09/08 10:09:28;;;;;;;;;;;25.50;99.90;;;;;;5114071;28;20006;-42
2023/09/08 10:11:54;;;;;;;;;;;25.60;99.90;;;;;;5113013;28;19959;-42
2023/09/08 10:14:21;;;;;;;;;;;25.70;99.90;;;;;;5113756;28;19918;-42
2023/09/08 10:16:52;;;;;;;;;;;25.80;99.90;;;;;;5112771;28;20347;-42
2023/09/08 10:19:17;;;;;;;;;;;25.80;99.90;;;;;;5091554;28;20366;-43
2023/09/08 10:21:45;;;;;;;;;;;25.90;99.90;;;;;;5104919;28;19926;-43
2023/09/08 10:24:32;;;;;;;;;;;26.00;99.90;;;;;;5133756;27;19987;-42
2023/09/08 10:27:07;;;;;;;;;;;26.10;99.90;;;;;;5133930;28;20003;-45
2023/09/08 10:29:32;;;;;;;;;;;26.20;99.90;;;;;;5133767;28;19907;-42
2023/09/08 10:31:59;;;;;;;;;;;26.20;99.90;;;;;;5132866;27;19924;-45
2023/09/08 10:34:26;;;;;;;;;;;26.30;99.90;;;;;;5133255;28;20404;-41
2023/09/08 10:36:52;;;;;;;;;;;26.40;99.90;;;;;;5133443;28;19978;-44
2023/09/08 10:39:29;;;;;;;;;;;26.50;99.90;;;;;;5134006;28;19908;-45
2023/09/08 10:42:13;;;;;;;;;;;26.60;99.90;;;;;;5133819;28;19923;-42
2023/09/08 10:44:39;;;;;;;;;;;26.70;99.90;;;;;;5143361;27;20379;-43
2023/09/08 10:47:05;;;;;;;;;;;26.70;99.90;;;;;;5130144;27;20037;-42
2023/09/08 10:49:34;;;;;;;;;;;26.80;99.90;;;;;;5133683;27;19916;-42
2023/09/08 10:52:20;;;;;;;;;;;26.90;99.90;;;;;;5124956;27;19911;-42
2023/09/08 10:54:50;;;;;;;;;;;26.90;99.90;;;;;;5132450;27;19931;-42
2023/09/08 10:57:17;;;;;;;;;;;27.00;99.90;;;;;;5133564;27;19908;-42
2023/09/08 11:00:11;;;;;;;;;;;27.00;99.90;;;;;;5126132;28;19912;-43
2023/09/08 11:02:38;;;;;;;;;;;27.10;99.90;;;;;;5124883;28;20281;-42
2023/09/08 11:05:06;;;;;;;;;;;27.10;99.90;;;;;;5133407;28;20043;-42
2023/09/08 11:07:32;;;;;;;;;;;27.30;99.90;;;;;;5133624;28;19918;-43
2023/09/08 11:09:59;;;;;;;;;;;27.30;99.90;;;;;;5133675;28;19963;-42
2023/09/08 11:12:26;;;;;;;;;;;27.40;99.90;;;;;;5133260;28;20332;-45
2023/09/08 11:14:52;;;;;;;;;;;27.50;99.90;;;;;;5131734;27;20277;-42
2023/09/08 11:17:17;;;;;;;;;;;27.60;99.90;;;;;;5125768;27;19911;-41
2023/09/08 11:19:47;;;;;;;;;;;27.70;99.90;;;;;;5127590;27;20335;-42
2023/09/08 11:22:13;;;;;;;;;;;27.70;99.90;;;;;;5141748;27;20355;-43
2023/09/08 11:24:39;;;;;;;;;;;27.80;99.90;;;;;;5140652;27;19918;-43
2023/09/08 11:27:05;;;;;;;;;;;27.90;99.90;;;;;;5142704;27;20018;-41
2023/09/08 11:29:31;;;;;;;;;;;27.90;99.90;;;;;;5137071;27;19998;-43
2023/09/08 11:31:56;;;;;;;;;;;27.90;99.90;;;;;;5127324;27;19926;-42
2023/09/08 11:34:22;;;;;;;;;;;28.00;99.90;;;;;;5122364;27;19915;-42
2023/09/08 11:36:47;;;;;;;;;;;28.10;99.90;;;;;;5124313;27;19912;-42
2023/09/08 11:39:14;;;;;;;;;;;28.10;99.90;;;;;;5134169;27;19911;-42
2023/09/08 11:41:39;;;;;;;;;;;28.20;99.90;;;;;;5143037;27;20381;-41
2023/09/08 11:44:05;;;;;;;;;;;28.20;99.90;;;;;;5133967;27;19911;-43
2023/09/08 11:46:30;;;;;;;;;;;28.20;99.90;;;;;;5127173;27;19959;-42
2023/09/08 11:48:56;;;;;;;;;;;28.40;99.90;;;;;;5124097;27;19954;-42
2023/09/08 11:51:25;;;;;;;;;;;28.40;99.90;;;;;;5136088;27;20374;-43
2023/09/08 11:53:51;;;;;;;;;;;28.40;99.90;;;;;;5134114;27;19907;-42
2023/09/08 11:56:17;;;;;;;;;;;28.50;99.90;;;;;;5122032;27;19908;-43
2023/09/08 11:58:42;;;;;;;;;;;28.50;99.90;;;;;;5135341;27;20033;-44
2023/09/08 12:01:09;;;;;;;;;;;28.50;99.90;;;;;;5136901;27;19911;-41
2023/09/08 12:03:50;;;;;;;;;;;28.60;99.40;;;;;;5132290;27;19984;-43
2023/09/08 12:06:16;;;;;;;;;;;28.60;99.80;;;;;;5134921;27;19908;-42
2023/09/08 12:08:41;;;;;;;;;;;28.70;98.90;;;;;;5134853;27;19919;-42
2023/09/08 12:11:08;;;;;;;;;;;28.70;98.10;;;;;;5135606;27;20270;-43
2023/09/08 12:13:34;;;;;;;;;;;28.80;99.30;;;;;;5136108;27;20370;-41
2023/09/08 12:16:00;;;;;;;;;;;28.80;99.50;;;;;;5129791;27;19920;-42
2023/09/08 12:18:39;;;;;;;;;;;28.80;98.40;;;;;;5130919;27;19911;-43
2023/09/08 12:21:04;;;;;;;;;;;28.80;98.70;;;;;;5136073;27;20289;-42
2023/09/08 12:23:30;;;;;;;;;;;28.80;96.90;;;;;;5135904;27;19920;-41
2023/09/08 12:25:56;;;;;;;;;;;28.90;97.70;;;;;;5135553;27;19908;-42
2023/09/08 12:28:22;;;;;;;;;;;28.90;97.50;;;;;;5129917;27;19922;-43
2023/09/08 12:30:51;;;;;;;;;;;28.90;97.90;;;;;;5135118;27;19907;-41
2023/09/08 12:33:19;;;;;;;;;;;29.00;98.10;;;;;;5121639;27;20003;-41
2023/09/08 12:35:45;;;;;;;;;;;29.00;97.10;;;;;;5124284;27;19911;-42
2023/09/08 12:38:12;;;;;;;;;;;29.10;97.80;;;;;;5127224;27;19922;-41
2023/09/08 12:40:38;;;;;;;;;;;29.20;96.60;;;;;;5117102;27;19908;-42
2023/09/08 12:43:04;;;;;;;;;;;29.30;98.30;;;;;;5115067;27;19969;-42
2023/09/08 12:45:30;;;;;;;;;;;29.40;98.40;;;;;;5137091;27;19919;-41
2023/09/08 12:47:58;;;;;;;;;;;29.40;97.00;;;;;;5124953;27;19912;-44
2023/09/08 12:50:25;;;;;;;;;;;29.60;97.00;;;;;;5133452;27;19973;-41
2023/09/08 12:52:50;;;;;;;;;;;29.70;96.90;;;;;;5134137;27;19908;-41
2023/09/08 12:55:16;;;;;;;;;;;29.90;96.50;;;;;;5113926;28;19923;-42
2023/09/08 12:57:41;;;;;;;;;;;30.10;97.00;;;;;;5114777;28;19974;-42
2023/09/08 13:00:07;;;;;;;;;;;30.40;97.10;;;;;;5131689;27;20362;-43
2023/09/08 13:02:33;;;;;;;;;;;30.60;95.70;;;;;;5124726;27;19922;-45
2023/09/08 13:04:58;;;;;;;;;;;30.70;96.00;;;;;;5130129;27;19918;-44
2023/09/08 13:07:24;;;;;;;;;;;30.80;95.50;;;;;;5142237;27;19989;-42
2023/09/08 13:09:50;;;;;;;;;;;31.00;95.60;;;;;;5135567;27;19931;-42
2023/09/08 13:12:16;;;;;;;;;;;31.20;94.80;;;;;;5130028;27;19957;-43
2023/09/08 13:14:43;;;;;;;;;;;31.40;93.10;;;;;;5132035;27;19915;-41
2023/09/08 13:17:10;;;;;;;;;;;31.60;93.30;;;;;;5135700;27;19930;-42
2023/09/08 13:19:37;;;;;;;;;;;31.90;94.40;;;;;;5118151;27;19934;-43
2023/09/08 13:22:03;;;;;;;;;;;32.10;93.50;;;;;;5118419;27;19912;-43
2023/09/08 13:24:29;;;;;;;;;;;32.40;93.50;;;;;;5123689;27;20006;-42
2023/09/08 13:26:54;;;;;;;;;;;32.60;91.20;;;;;;5142737;27;20003;-46
2023/09/08 13:29:20;;;;;;;;;;;32.80;93.10;;;;;;5155937;27;20372;-42
2023/09/08 13:31:45;;;;;;;;;;;33.00;92.40;;;;;;5135337;27;19926;-43
2023/09/08 13:34:11;;;;;;;;;;;33.20;90.80;;;;;;5132709;27;19919;-43
2023/09/08 13:36:36;;;;;;;;;;;33.40;91.00;;;;;;5125131;27;20366;-43
2023/09/08 13:39:02;;;;;;;;;;;33.50;90.60;;;;;;5135308;27;19952;-41
2023/09/08 13:41:48;;;;;;;;;;;33.50;86.10;;;;;;5133910;27;19911;-42
2023/09/08 13:44:13;;;;;;;;;;;33.70;90.50;;;;;;5117798;27;20269;-41
2023/09/08 13:46:39;;;;;;;;;;;33.90;89.70;;;;;;5155408;27;20369;-43
2023/09/08 13:49:04;;;;;;;;;;;34.10;87.30;;;;;;5155086;27;20261;-46
2023/09/08 13:51:31;;;;;;;;;;;34.20;88.10;;;;;;5142999;27;19912;-42
2023/09/08 13:53:56;;;;;;;;;;;34.40;89.60;;;;;;5128239;27;19918;-42
2023/09/08 13:56:22;;;;;;;;;;;34.50;87.50;;;;;;5130732;27;19912;-45
2023/09/08 13:58:47;;;;;;;;;;;34.60;86.20;;;;;;5117953;27;19939;-43
2023/09/08 14:01:13;;;;;;;;;;;34.80;84.10;;;;;;5134720;27;19907;-42
2023/09/08 14:03:38;;;;;;;;;;;34.90;81.80;;;;;;5125696;27;20005;-43
2023/09/08 14:06:04;;;;;;;;;;;35.10;82.90;;;;;;5114068;28;19914;-42
2023/09/08 14:08:29;;;;;;;;;;;35.30;83.40;;;;;;5114114;28;19908;-43
2023/09/08 14:10:55;;;;;;;;;;;35.40;82.90;;;;;;5114143;28;19947;-44